Time;durP1;ratioP1;P1;durP2;ratioP2;P2;SDS_P1;SDS_P2;PMS_P1;PMS_P2;Temp;Humidity;BMP_temperature;BMP_pressure;BME280_temperature;BME280_humidity;BME280_pressure;Samples;Min_cycle;Max_cycle;Signal;HPM_P1;HPM_P2
2023/03/06 00:00:34;;;;;;;;;37.25;33.75;;;;;-147.17;100.00;-15917.19;5115446;27;51100;-56
2023/03/06 00:02:59;;;;;;;;;41.00;37.00;;;;;-147.17;100.00;-15917.19;5114555;27;51385;-53
2023/03/06 00:05:25;;;;;;;;;47.00;40.00;;;;;-147.17;100.00;-15917.19;5111241;27;51276;-51
2023/03/06 00:07:50;;;;;;;;;43.50;39.25;;;;;-147.17;100.00;-15917.19;5118414;27;52176;-53
2023/03/06 00:10:18;;;;;;;;;31.75;30.75;;;;;-147.17;100.00;-15917.19;5116931;27;51041;-53
2023/03/06 00:12:44;;;;;;;;;47.00;40.00;;;;;-147.17;100.00;-15917.19;5113372;27;51248;-53
2023/03/06 00:15:10;;;;;;;;;46.75;39.75;;;;;-147.17;100.00;-15917.19;5114782;27;51414;-54
2023/03/06 00:17:36;;;;;;;;;45.75;39.50;;;;;-147.17;100.00;-15917.19;5114329;27;52241;-51
2023/03/06 00:20:02;;;;;;;;;37.75;35.25;;;;;-147.17;100.00;-15917.19;5112718;27;51276;-54
2023/03/06 00:22:27;;;;;;;;;35.25;35.00;;;;;-147.17;100.00;-15917.19;5096206;27;51360;-54
2023/03/06 00:24:53;;;;;;;;;50.25;38.00;;;;;-147.17;100.00;-15917.19;5115275;27;51269;-54
2023/03/06 00:27:19;;;;;;;;;37.50;35.75;;;;;-147.17;100.00;-15917.19;5110538;27;51211;-55
2023/03/06 00:29:47;;;;;;;;;50.00;40.25;;;;;-147.17;100.00;-15917.19;5112967;27;51247;-55
2023/03/06 00:32:13;;;;;;;;;34.75;34.25;;;;;-147.17;100.00;-15917.19;5114922;27;51336;-54
2023/03/06 00:34:38;;;;;;;;;37.00;33.75;;;;;-147.17;100.00;-15917.19;5091262;27;51101;-54
2023/03/06 00:37:04;;;;;;;;;35.00;33.25;;;;;-147.17;100.00;-15917.19;5094459;27;55728;-54
2023/03/06 00:39:29;;;;;;;;;36.75;33.50;;;;;-147.17;100.00;-15917.19;5113216;27;50906;-55
2023/03/06 00:41:54;;;;;;;;;39.75;32.00;;;;;-147.17;100.00;-15917.19;5103856;27;51160;-54
2023/03/06 00:44:20;;;;;;;;;39.00;35.75;;;;;-147.17;100.00;-15917.19;5109985;27;51047;-53
2023/03/06 00:46:45;;;;;;;;;36.25;31.25;;;;;-147.17;100.00;-15917.19;5108270;27;51367;-54
2023/03/06 00:49:10;;;;;;;;;35.50;32.25;;;;;-147.17;100.00;-15917.19;5104542;27;51204;-52
2023/03/06 00:51:36;;;;;;;;;37.75;35.75;;;;;-147.17;100.00;-15917.19;5114502;27;51098;-54
2023/03/06 00:54:01;;;;;;;;;36.00;29.50;;;;;-147.17;100.00;-15917.19;5099782;27;51005;-55
2023/03/06 00:56:26;;;;;;;;;32.25;31.00;;;;;-147.17;100.00;-15917.19;5086943;27;53298;-54
2023/03/06 00:58:52;;;;;;;;;29.25;26.75;;;;;-147.17;100.00;-15917.19;5104839;27;57928;-54
2023/03/06 01:01:17;;;;;;;;;39.25;31.50;;;;;-147.17;100.00;-15917.19;5108209;27;51627;-53
2023/03/06 01:03:42;;;;;;;;;37.75;32.75;;;;;-147.17;100.00;-15917.19;5088355;27;51222;-53
2023/03/06 01:06:08;;;;;;;;;32.50;30.50;;;;;-147.17;100.00;-15917.19;5106875;27;54361;-54
2023/03/06 01:08:33;;;;;;;;;38.75;32.75;;;;;-147.17;100.00;-15917.19;5105005;27;51010;-55
2023/03/06 01:10:58;;;;;;;;;33.75;30.50;;;;;-147.17;100.00;-15917.19;5110610;27;53227;-54
2023/03/06 01:13:24;;;;;;;;;35.00;32.00;;;;;-147.17;100.00;-15917.19;5105085;27;51657;-55
2023/03/06 01:15:49;;;;;;;;;38.50;32.50;;;;;-147.17;100.00;-15917.19;5105161;27;51717;-54
2023/03/06 01:18:14;;;;;;;;;35.00;34.00;;;;;-147.17;100.00;-15917.19;5088670;27;51047;-54
2023/03/06 01:20:40;;;;;;;;;35.00;33.25;;;;;-147.17;100.00;-15917.19;5101876;27;51584;-54
2023/03/06 01:23:05;;;;;;;;;32.50;28.75;;;;;-147.17;100.00;-15917.19;5109252;27;51364;-52
2023/03/06 01:25:30;;;;;;;;;34.50;33.25;;;;;-147.17;100.00;-15917.19;5102690;27;51982;-55
2023/03/06 01:27:56;;;;;;;;;37.75;34.00;;;;;-147.17;100.00;-15917.19;5103909;27;50988;-54
2023/03/06 01:30:21;;;;;;;;;48.75;38.00;;;;;-147.17;100.00;-15917.19;5107106;27;51070;-54
2023/03/06 01:32:47;;;;;;;;;46.00;37.25;;;;;-147.17;100.00;-15917.19;5098690;27;52671;-55
2023/03/06 01:35:13;;;;;;;;;43.75;38.00;;;;;-147.17;100.00;-15917.19;5099331;27;51914;-54
2023/03/06 01:37:39;;;;;;;;;40.00;36.50;;;;;-147.17;100.00;-15917.19;5109431;27;51236;-51
2023/03/06 01:40:05;;;;;;;;;38.50;34.50;;;;;-147.17;100.00;-15917.19;5106638;27;51033;-58
2023/03/06 01:42:31;;;;;;;;;33.50;31.00;;;;;-147.17;100.00;-15917.19;5101834;27;51160;-54
2023/03/06 01:45:16;;;;;;;;;38.00;36.25;;;;;-147.17;100.00;-15917.19;5107824;27;51994;-53
2023/03/06 01:47:43;;;;;;;;;29.75;27.25;;;;;-147.17;100.00;-15917.19;5050821;27;50982;-50
2023/03/06 01:50:11;;;;;;;;;33.00;28.75;;;;;-147.17;100.00;-15917.19;5099602;27;51737;-54
2023/03/06 01:52:55;;;;;;;;;39.50;32.75;;;;;-147.17;100.00;-15917.19;5110797;27;51006;-51
2023/03/06 01:55:33;;;;;;;;;33.25;29.25;;;;;-147.17;100.00;-15917.19;5104929;27;51961;-51
2023/03/06 01:58:02;;;;;;;;;32.00;28.25;;;;;-147.17;100.00;-15917.19;5086785;27;51082;-50
2023/03/06 02:00:29;;;;;;;;;35.50;32.00;;;;;-147.17;100.00;-15917.19;5107454;27;52290;-50
2023/03/06 02:03:02;;;;;;;;;25.50;24.75;;;;;-147.17;100.00;-15917.19;5088684;27;51022;-49
2023/03/06 02:05:28;;;;;;;;;30.75;27.75;;;;;-147.17;100.00;-15917.19;5109965;27;52777;-50
2023/03/06 02:07:54;;;;;;;;;31.75;30.00;;;;;-147.17;100.00;-15917.19;5111176;27;50959;-49
2023/03/06 02:10:20;;;;;;;;;33.75;29.75;;;;;-147.17;100.00;-15917.19;5108564;27;51397;-50
2023/03/06 02:12:49;;;;;;;;;25.00;22.75;;;;;-147.17;100.00;-15917.19;5109981;27;51173;-50
2023/03/06 02:15:17;;;;;;;;;30.25;22.50;;;;;-147.17;100.00;-15917.19;5109594;27;51085;-51
2023/03/06 02:17:46;;;;;;;;;28.00;23.50;;;;;-147.17;100.00;-15917.19;5092201;27;51082;-50
2023/03/06 02:20:30;;;;;;;;;34.00;30.50;;;;;-147.17;100.00;-15917.19;5110073;27;51277;-50
2023/03/06 02:23:04;;;;;;;;;33.25;29.25;;;;;-147.17;100.00;-15917.19;5110986;27;51285;-50
2023/03/06 02:25:43;;;;;;;;;34.50;30.25;;;;;-147.17;100.00;-15917.19;5110801;27;51875;-47
2023/03/06 02:28:12;;;;;;;;;31.00;27.50;;;;;-147.17;100.00;-15917.19;5094089;27;51198;-50
2023/03/06 02:30:37;;;;;;;;;20.50;18.25;;;;;-147.17;100.00;-15917.19;5111114;27;51181;-49
2023/03/06 02:33:04;;;;;;;;;30.00;25.25;;;;;-147.17;100.00;-15917.19;5109820;27;51004;-50
2023/03/06 02:35:32;;;;;;;;;27.25;26.25;;;;;-147.17;100.00;-15917.19;5108607;27;51330;-49
2023/03/06 02:38:03;;;;;;;;;29.00;26.00;;;;;-147.17;100.00;-15917.19;5111345;27;51072;-48
2023/03/06 02:40:29;;;;;;;;;29.50;28.75;;;;;-147.17;100.00;-15917.19;5109431;27;51161;-51
2023/03/06 02:42:56;;;;;;;;;31.75;27.25;;;;;-147.17;100.00;-15917.19;5110548;27;51356;-49
2023/03/06 02:45:32;;;;;;;;;28.50;27.25;;;;;-147.17;100.00;-15917.19;5108072;27;51736;-50
2023/03/06 02:47:58;;;;;;;;;31.50;26.25;;;;;-147.17;100.00;-15917.19;5111590;27;52771;-49
2023/03/06 02:50:23;;;;;;;;;26.25;24.00;;;;;-147.17;100.00;-15917.19;5111155;27;51318;-49
2023/03/06 02:52:48;;;;;;;;;33.75;29.75;;;;;-147.17;100.00;-15917.19;5107905;27;51514;-49
2023/03/06 02:55:13;;;;;;;;;28.75;27.00;;;;;-147.17;100.00;-15917.19;5110438;27;58186;-50
2023/03/06 02:57:39;;;;;;;;;32.50;31.50;;;;;-147.17;100.00;-15917.19;5108317;27;58702;-49
2023/03/06 03:00:05;;;;;;;;;26.00;23.50;;;;;-147.17;100.00;-15917.19;5111643;27;50951;-49
2023/03/06 03:02:30;;;;;;;;;28.50;26.00;;;;;-147.17;100.00;-15917.19;5092145;27;51732;-50
2023/03/06 03:04:56;;;;;;;;;30.50;28.50;;;;;-147.17;100.00;-15917.19;5108592;27;51208;-49
2023/03/06 03:07:21;;;;;;;;;30.25;28.50;;;;;-147.17;100.00;-15917.19;5112206;27;51329;-51
2023/03/06 03:09:46;;;;;;;;;34.25;26.00;;;;;-147.17;100.00;-15917.19;5111624;27;54212;-49
2023/03/06 03:12:12;;;;;;;;;36.75;32.00;;;;;-147.17;100.00;-15917.19;5110577;27;51004;-48
2023/03/06 03:14:37;;;;;;;;;32.75;27.00;;;;;-147.17;100.00;-15917.19;5093873;27;53130;-49
2023/03/06 03:17:03;;;;;;;;;35.00;32.75;;;;;-147.17;100.00;-15917.19;5108798;27;51420;-50
2023/03/06 03:19:28;;;;;;;;;34.50;31.50;;;;;-147.17;100.00;-15917.19;5111156;27;51352;-49
2023/03/06 03:21:53;;;;;;;;;27.75;25.50;;;;;-147.17;100.00;-15917.19;5107324;27;51318;-51
2023/03/06 03:24:19;;;;;;;;;36.25;29.50;;;;;-147.17;100.00;-15917.19;5110713;27;50967;-49
2023/03/06 03:26:44;;;;;;;;;31.75;25.75;;;;;-147.17;100.00;-15917.19;5109915;27;51198;-48
2023/03/06 03:29:09;;;;;;;;;39.25;33.50;;;;;-147.17;100.00;-15917.19;5112228;27;51263;-49
2023/03/06 03:31:35;;;;;;;;;32.50;29.25;;;;;-147.17;100.00;-15917.19;5110321;27;51111;-48
2023/03/06 03:34:01;;;;;;;;;27.75;25.00;;;;;-147.17;100.00;-15917.19;5109865;27;52019;-50
2023/03/06 03:36:26;;;;;;;;;27.50;24.25;;;;;-147.17;100.00;-15917.19;5104562;27;51237;-49
2023/03/06 03:38:52;;;;;;;;;33.50;27.25;;;;;-147.17;100.00;-15917.19;5111154;27;50994;-51
2023/03/06 03:41:17;;;;;;;;;34.25;29.25;;;;;-147.17;100.00;-15917.19;5107383;27;51022;-50
2023/03/06 03:43:43;;;;;;;;;26.00;24.75;;;;;-147.17;100.00;-15917.19;5109290;27;51580;-50
2023/03/06 03:46:08;;;;;;;;;34.50;30.75;;;;;-147.17;100.00;-15917.19;5111069;27;51049;-50
2023/03/06 03:48:33;;;;;;;;;29.25;26.00;;;;;-147.17;100.00;-15917.19;5113090;27;51182;-50
2023/03/06 03:51:10;;;;;;;;;29.25;26.50;;;;;-147.17;100.00;-15917.19;5116068;27;50897;-48
2023/03/06 03:53:36;;;;;;;;;31.00;26.50;;;;;-147.17;100.00;-15917.19;5110299;27;52283;-50
2023/03/06 03:56:02;;;;;;;;;32.50;27.00;;;;;-147.17;100.00;-15917.19;5107890;27;51071;-50
2023/03/06 03:58:28;;;;;;;;;30.50;27.25;;;;;-147.17;100.00;-15917.19;5095031;27;51216;-50
2023/03/06 04:00:53;;;;;;;;;27.50;24.75;;;;;-147.17;100.00;-15917.19;5116004;27;50970;-50
2023/03/06 04:03:19;;;;;;;;;33.25;31.00;;;;;-147.17;100.00;-15917.19;5114549;27;52193;-51
2023/03/06 04:05:44;;;;;;;;;26.25;25.25;;;;;-147.17;100.00;-15917.19;5114520;27;51198;-49
2023/03/06 04:08:09;;;;;;;;;34.50;32.00;;;;;-147.17;100.00;-15917.19;5115595;27;51133;-50
2023/03/06 04:10:37;;;;;;;;;34.75;29.75;;;;;-147.17;100.00;-15917.19;5115748;27;51351;-49
2023/03/06 04:13:02;;;;;;;;;32.25;28.25;;;;;-147.17;100.00;-15917.19;5110792;27;51186;-48
2023/03/06 04:15:28;;;;;;;;;36.00;32.50;;;;;-147.17;100.00;-15917.19;5111999;27;51248;-50
2023/03/06 04:17:53;;;;;;;;;32.00;29.75;;;;;-147.17;100.00;-15917.19;5115159;27;52587;-50
2023/03/06 04:20:19;;;;;;;;;34.75;31.75;;;;;-147.17;100.00;-15917.19;5113279;27;50966;-50
2023/03/06 04:22:44;;;;;;;;;30.25;27.75;;;;;-147.17;100.00;-15917.19;5113895;27;51611;-51
2023/03/06 04:25:10;;;;;;;;;31.25;28.25;;;;;-147.17;100.00;-15917.19;5114060;27;50977;-50
2023/03/06 04:27:35;;;;;;;;;36.25;28.25;;;;;-147.17;100.00;-15917.19;5112757;27;51078;-49
2023/03/06 04:30:00;;;;;;;;;25.25;25.00;;;;;-147.17;100.00;-15917.19;5114333;27;51243;-49
2023/03/06 04:32:26;;;;;;;;;31.50;27.50;;;;;-147.17;100.00;-15917.19;5094679;27;54405;-49
2023/03/06 04:34:51;;;;;;;;;30.25;24.25;;;;;-147.17;100.00;-15917.19;5113384;27;51432;-50
2023/03/06 04:37:21;;;;;;;;;32.75;31.00;;;;;-147.17;100.00;-15917.19;5111925;27;51031;-51
2023/03/06 04:39:47;;;;;;;;;36.75;32.75;;;;;-147.17;100.00;-15917.19;5113997;27;50965;-48
2023/03/06 04:42:12;;;;;;;;;31.25;26.75;;;;;-147.17;100.00;-15917.19;5112985;27;51790;-49
2023/03/06 04:44:38;;;;;;;;;30.75;29.25;;;;;-147.17;100.00;-15917.19;5115012;27;51089;-48
2023/03/06 04:47:03;;;;;;;;;35.75;32.25;;;;;-147.17;100.00;-15917.19;5105847;27;51244;-49
2023/03/06 04:49:29;;;;;;;;;29.75;26.75;;;;;-147.17;100.00;-15917.19;5109253;27;51365;-49
2023/03/06 04:51:54;;;;;;;;;35.50;31.00;;;;;-147.17;100.00;-15917.19;5110406;27;51794;-51
2023/03/06 04:54:19;;;;;;;;;31.75;28.75;;;;;-147.17;100.00;-15917.19;5113630;27;51942;-51
2023/03/06 04:56:45;;;;;;;;;32.00;29.75;;;;;-147.17;100.00;-15917.19;5113002;27;50930;-52
2023/03/06 04:59:10;;;;;;;;;34.00;31.00;;;;;-147.17;100.00;-15917.19;5112732;27;51009;-49
2023/03/06 05:01:35;;;;;;;;;34.50;32.50;;;;;-147.17;100.00;-15917.19;5115267;27;52016;-48
2023/03/06 05:04:00;;;;;;;;;38.25;32.25;;;;;-147.17;100.00;-15917.19;5114075;27;51029;-51
2023/03/06 05:06:26;;;;;;;;;32.00;27.50;;;;;-147.17;100.00;-15917.19;5107543;27;52252;-50
2023/03/06 05:08:51;;;;;;;;;31.00;26.75;;;;;-147.17;100.00;-15917.19;5093325;27;50889;-51
2023/03/06 05:11:16;;;;;;;;;37.50;36.25;;;;;-147.17;100.00;-15917.19;5112264;27;51566;-49
2023/03/06 05:13:42;;;;;;;;;37.75;31.00;;;;;-147.17;100.00;-15917.19;5112968;27;50890;-50
2023/03/06 05:16:08;;;;;;;;;31.25;29.25;;;;;-147.17;100.00;-15917.19;5110690;27;51184;-49
2023/03/06 05:18:34;;;;;;;;;38.75;33.00;;;;;-147.17;100.00;-15917.19;5115473;27;50853;-49
2023/03/06 05:21:00;;;;;;;;;36.75;32.50;;;;;-147.17;100.00;-15917.19;5110874;27;52392;-50
2023/03/06 05:23:27;;;;;;;;;33.75;28.25;;;;;-147.17;100.00;-15917.19;5110935;27;51027;-50
2023/03/06 05:25:52;;;;;;;;;36.25;29.00;;;;;-147.17;100.00;-15917.19;5113031;27;51094;-51
2023/03/06 05:28:17;;;;;;;;;34.25;30.50;;;;;-147.17;100.00;-15917.19;5112376;27;51191;-49
2023/03/06 05:30:43;;;;;;;;;33.25;29.50;;;;;-147.17;100.00;-15917.19;5112898;27;51089;-49
2023/03/06 05:33:08;;;;;;;;;21.75;19.50;;;;;-147.17;100.00;-15917.19;5111865;27;51146;-49
2023/03/06 05:35:33;;;;;;;;;29.50;28.25;;;;;-147.17;100.00;-15917.19;5113926;27;51190;-49
2023/03/06 05:37:59;;;;;;;;;40.25;35.50;;;;;-147.17;100.00;-15917.19;5113710;27;51369;-49
2023/03/06 05:40:24;;;;;;;;;40.75;32.25;;;;;-147.17;100.00;-15917.19;5110022;27;50873;-50
2023/03/06 05:42:49;;;;;;;;;34.25;28.50;;;;;-147.17;100.00;-15917.19;5112063;27;51020;-49
2023/03/06 05:45:15;;;;;;;;;39.25;32.75;;;;;-147.17;100.00;-15917.19;5112984;27;51137;-51
2023/03/06 05:47:40;;;;;;;;;39.25;31.00;;;;;-147.17;100.00;-15917.19;5114616;27;51096;-51
2023/03/06 05:50:07;;;;;;;;;35.75;27.25;;;;;-147.17;100.00;-15917.19;5100164;27;51735;-51
2023/03/06 05:52:32;;;;;;;;;38.50;31.00;;;;;-147.17;100.00;-15917.19;5113382;27;51039;-49
2023/03/06 05:54:57;;;;;;;;;37.00;29.50;;;;;-147.17;100.00;-15917.19;5112526;27;51148;-50
2023/03/06 05:57:23;;;;;;;;;34.75;33.75;;;;;-147.17;100.00;-15917.19;5095252;27;51501;-49
2023/03/06 05:59:50;;;;;;;;;32.75;26.25;;;;;-147.17;100.00;-15917.19;5110272;27;51670;-50
2023/03/06 06:02:16;;;;;;;;;34.50;30.75;;;;;-147.17;100.00;-15917.19;5109828;27;51097;-50
2023/03/06 06:04:42;;;;;;;;;26.50;25.00;;;;;-147.17;100.00;-15917.19;5112144;27;51243;-50
2023/03/06 06:07:11;;;;;;;;;36.25;29.75;;;;;-147.17;100.00;-15917.19;5113264;27;51191;-50
2023/03/06 06:09:36;;;;;;;;;32.25;28.75;;;;;-147.17;100.00;-15917.19;5112618;27;51208;-50
2023/03/06 06:12:02;;;;;;;;;32.75;27.50;;;;;-147.17;100.00;-15917.19;5108979;27;50982;-49
2023/03/06 06:14:28;;;;;;;;;22.75;22.00;;;;;-147.17;100.00;-15917.19;5110222;27;51283;-50
2023/03/06 06:16:54;;;;;;;;;29.00;26.25;;;;;-147.17;100.00;-15917.19;5105091;27;51165;-49
2023/03/06 06:19:21;;;;;;;;;33.50;29.75;;;;;-147.17;100.00;-15917.19;5111748;27;51724;-49
2023/03/06 06:21:52;;;;;;;;;27.00;25.25;;;;;-147.17;100.00;-15917.19;5102460;27;51371;-49
2023/03/06 06:24:19;;;;;;;;;28.50;25.25;;;;;-147.17;100.00;-15917.19;5108415;27;51391;-49
2023/03/06 06:26:46;;;;;;;;;30.50;26.25;;;;;-147.17;100.00;-15917.19;5111468;27;51237;-51
2023/03/06 06:29:12;;;;;;;;;33.00;31.50;;;;;-147.17;100.00;-15917.19;5109922;27;51842;-51
2023/03/06 06:31:38;;;;;;;;;21.25;18.75;;;;;-147.17;100.00;-15917.19;5106892;27;51289;-51
2023/03/06 06:34:05;;;;;;;;;28.25;25.75;;;;;-147.17;100.00;-15917.19;5111052;27;51327;-50
2023/03/06 06:36:32;;;;;;;;;36.25;27.00;;;;;-147.17;100.00;-15917.19;5093335;27;51230;-49
2023/03/06 06:38:58;;;;;;;;;28.25;25.75;;;;;-147.17;100.00;-15917.19;5110593;27;51099;-50
2023/03/06 06:41:24;;;;;;;;;30.75;24.75;;;;;-147.17;100.00;-15917.19;5111078;27;51039;-49
2023/03/06 06:43:50;;;;;;;;;30.75;27.75;;;;;-147.17;100.00;-15917.19;5109705;27;51115;-49
2023/03/06 06:46:15;;;;;;;;;34.00;30.75;;;;;-147.17;100.00;-15917.19;5108628;27;51215;-50
2023/03/06 06:48:41;;;;;;;;;31.50;29.25;;;;;-147.17;100.00;-15917.19;5109073;27;52050;-49
2023/03/06 06:51:06;;;;;;;;;34.75;31.75;;;;;-147.17;100.00;-15917.19;5112031;27;51195;-51
2023/03/06 06:53:31;;;;;;;;;38.75;31.50;;;;;-147.17;100.00;-15917.19;5110879;27;51354;-49
2023/03/06 06:55:57;;;;;;;;;29.50;27.50;;;;;-147.17;100.00;-15917.19;5090556;27;51318;-49
2023/03/06 06:58:23;;;;;;;;;29.00;26.25;;;;;-147.17;100.00;-15917.19;5087921;27;52079;-50
2023/03/06 07:00:49;;;;;;;;;33.00;26.75;;;;;-147.17;100.00;-15917.19;5111958;27;51090;-50
2023/03/06 07:03:14;;;;;;;;;26.75;24.50;;;;;-147.17;100.00;-15917.19;5112233;27;51225;-50
2023/03/06 07:05:40;;;;;;;;;30.50;28.50;;;;;-147.17;100.00;-15917.19;5110699;27;51424;-49
2023/03/06 07:08:06;;;;;;;;;34.25;29.50;;;;;-147.17;100.00;-15917.19;5111859;27;51723;-51
2023/03/06 07:10:31;;;;;;;;;32.25;28.00;;;;;-147.17;100.00;-15917.19;5110623;27;51124;-49
2023/03/06 07:12:56;;;;;;;;;31.75;30.25;;;;;-147.17;100.00;-15917.19;5112494;27;51186;-49
2023/03/06 07:15:25;;;;;;;;;30.00;27.75;;;;;-147.17;100.00;-15917.19;5111174;27;51224;-51
2023/03/06 07:17:51;;;;;;;;;32.75;29.75;;;;;-147.17;100.00;-15917.19;5111488;27;51086;-50
2023/03/06 07:20:17;;;;;;;;;32.25;29.50;;;;;-147.17;100.00;-15917.19;5109052;27;51077;-50
2023/03/06 07:22:42;;;;;;;;;30.25;26.75;;;;;-147.17;100.00;-15917.19;5110021;27;51259;-50
2023/03/06 07:25:08;;;;;;;;;38.00;33.00;;;;;-147.17;100.00;-15917.19;5104304;27;51237;-49
2023/03/06 07:27:33;;;;;;;;;30.25;29.25;;;;;-147.17;100.00;-15917.19;5114703;27;51103;-49
2023/03/06 07:29:59;;;;;;;;;26.25;24.00;;;;;-147.17;100.00;-15917.19;5111719;27;51142;-51
2023/03/06 07:32:24;;;;;;;;;30.75;29.00;;;;;-147.17;100.00;-15917.19;5114900;27;51154;-51
2023/03/06 07:34:49;;;;;;;;;43.00;34.25;;;;;-147.17;100.00;-15917.19;5110632;27;51406;-49
2023/03/06 07:37:15;;;;;;;;;34.50;29.75;;;;;-147.17;100.00;-15917.19;5100212;27;51870;-49
2023/03/06 07:39:40;;;;;;;;;32.50;30.25;;;;;-147.17;100.00;-15917.19;5111951;27;51158;-50
2023/03/06 07:42:06;;;;;;;;;27.00;24.50;;;;;-147.17;100.00;-15917.19;5113929;27;51135;-49
2023/03/06 07:44:36;;;;;;;;;32.00;26.00;;;;;-147.17;100.00;-15917.19;5096643;27;51036;-51
2023/03/06 07:47:02;;;;;;;;;26.00;25.25;;;;;-147.17;100.00;-15917.19;5113886;27;51152;-50
2023/03/06 07:49:27;;;;;;;;;23.50;21.25;;;;;-147.17;100.00;-15917.19;5113613;27;51220;-50
2023/03/06 07:51:52;;;;;;;;;29.25;25.75;;;;;-147.17;100.00;-15917.19;5110658;27;51191;-48
2023/03/06 07:54:18;;;;;;;;;33.25;30.75;;;;;-147.17;100.00;-15917.19;5114042;27;51305;-49
2023/03/06 07:56:43;;;;;;;;;31.25;26.25;;;;;-147.17;100.00;-15917.19;5112960;27;51749;-49
2023/03/06 07:59:10;;;;;;;;;31.00;29.00;;;;;-147.17;100.00;-15917.19;5106886;27;55280;-50
2023/03/06 08:01:38;;;;;;;;;26.00;22.00;;;;;-147.17;100.00;-15917.19;5107467;27;51253;-51
2023/03/06 08:04:03;;;;;;;;;26.75;24.50;;;;;-147.17;100.00;-15917.19;5109731;27;51466;-49
2023/03/06 08:06:29;;;;;;;;;27.75;23.25;;;;;-147.17;100.00;-15917.19;5115091;27;52252;-50
2023/03/06 08:08:55;;;;;;;;;24.25;22.75;;;;;-147.17;100.00;-15917.19;5112194;27;52776;-50
2023/03/06 08:11:23;;;;;;;;;18.75;18.25;;;;;-147.17;100.00;-15917.19;5113578;27;51208;-49
2023/03/06 08:13:48;;;;;;;;;28.50;27.00;;;;;-147.17;100.00;-15917.19;5115488;27;51339;-49
2023/03/06 08:16:14;;;;;;;;;28.25;26.00;;;;;-147.17;100.00;-15917.19;5110640;27;52193;-50
2023/03/06 08:18:40;;;;;;;;;28.00;26.50;;;;;-147.17;100.00;-15917.19;5112245;27;51089;-51
2023/03/06 08:21:09;;;;;;;;;30.75;26.00;;;;;-147.17;100.00;-15917.19;5115006;27;50845;-52
2023/03/06 08:23:35;;;;;;;;;29.00;24.50;;;;;-147.17;100.00;-15917.19;5111518;27;51003;-53
2023/03/06 08:26:04;;;;;;;;;19.00;19.00;;;;;-147.17;100.00;-15917.19;5114202;27;52388;-52
2023/03/06 08:28:30;;;;;;;;;27.75;24.75;;;;;-147.17;100.00;-15917.19;5096874;27;50999;-51
2023/03/06 08:30:56;;;;;;;;;24.75;23.25;;;;;-147.17;100.00;-15917.19;5113337;27;51147;-48
2023/03/06 08:33:22;;;;;;;;;27.25;25.75;;;;;-147.17;100.00;-15917.19;5112846;27;51378;-50
2023/03/06 08:35:48;;;;;;;;;31.00;26.25;;;;;-147.17;100.00;-15917.19;5114481;27;51866;-51
2023/03/06 08:38:13;;;;;;;;;31.00;29.00;;;;;-147.17;100.00;-15917.19;5115145;27;51043;-52
2023/03/06 08:40:39;;;;;;;;;32.25;26.75;;;;;-147.17;100.00;-15917.19;5114504;27;51700;-53
2023/03/06 08:43:07;;;;;;;;;23.75;17.25;;;;;-147.17;100.00;-15917.19;5113943;27;51405;-52
2023/03/06 08:45:32;;;;;;;;;24.50;23.75;;;;;-147.17;100.00;-15917.19;5114488;27;52340;-51
2023/03/06 08:47:58;;;;;;;;;29.75;22.25;;;;;-147.17;100.00;-15917.19;5114501;27;50989;-52
2023/03/06 08:50:23;;;;;;;;;28.50;27.75;;;;;-147.17;100.00;-15917.19;5089187;27;51704;-52
2023/03/06 08:52:48;;;;;;;;;27.00;23.50;;;;;-147.17;100.00;-15917.19;5110534;27;51022;-50
2023/03/06 08:55:13;;;;;;;;;31.50;25.50;;;;;-147.17;100.00;-15917.19;5114161;27;51523;-52
2023/03/06 08:57:39;;;;;;;;;28.00;25.50;;;;;-147.17;100.00;-15917.19;5114835;27;51050;-50
2023/03/06 09:00:07;;;;;;;;;31.50;29.00;;;;;-147.17;100.00;-15917.19;5112350;27;51685;-48
2023/03/06 09:02:33;;;;;;;;;23.50;22.25;;;;;-147.17;100.00;-15917.19;5113651;27;51348;-50
2023/03/06 09:05:00;;;;;;;;;33.50;26.50;;;;;-147.17;100.00;-15917.19;5114535;27;52121;-49
2023/03/06 09:07:25;;;;;;;;;24.00;22.75;;;;;-147.17;100.00;-15917.19;5113536;27;51171;-51
2023/03/06 09:09:55;;;;;;;;;24.00;23.00;;;;;-147.17;100.00;-15917.19;5114498;27;51293;-51
2023/03/06 09:12:20;;;;;;;;;30.00;27.75;;;;;-147.17;100.00;-15917.19;5114786;27;50954;-52
2023/03/06 09:14:46;;;;;;;;;32.25;29.00;;;;;-147.17;100.00;-15917.19;5114553;27;51859;-49
2023/03/06 09:17:11;;;;;;;;;27.00;23.25;;;;;-147.17;100.00;-15917.19;5115275;27;51065;-52
2023/03/06 09:19:37;;;;;;;;;29.00;26.00;;;;;-147.17;100.00;-15917.19;5113810;27;51165;-50
2023/03/06 09:22:02;;;;;;;;;31.25;28.00;;;;;-147.17;100.00;-15917.19;5113455;27;50885;-49
2023/03/06 09:24:28;;;;;;;;;27.75;23.25;;;;;-147.17;100.00;-15917.19;5114362;27;51005;-51
2023/03/06 09:26:53;;;;;;;;;28.50;24.25;;;;;-147.17;100.00;-15917.19;5112396;27;51035;-50
2023/03/06 09:29:19;;;;;;;;;27.75;24.00;;;;;-147.17;100.00;-15917.19;5114786;27;51288;-50
2023/03/06 09:31:44;;;;;;;;;25.00;23.75;;;;;-147.17;100.00;-15917.19;5115189;27;51336;-50
2023/03/06 09:34:10;;;;;;;;;27.00;23.75;;;;;-147.17;100.00;-15917.19;5095987;27;53790;-48
2023/03/06 09:36:35;;;;;;;;;30.50;25.75;;;;;-147.17;100.00;-15917.19;5114693;27;51200;-49
2023/03/06 09:39:00;;;;;;;;;23.75;21.75;;;;;-147.17;100.00;-15917.19;5095895;27;51657;-52
2023/03/06 09:41:29;;;;;;;;;31.25;25.50;;;;;-147.17;100.00;-15917.19;5113220;27;51407;-54
2023/03/06 09:44:07;;;;;;;;;29.75;25.50;;;;;-147.17;100.00;-15917.19;5114416;27;51063;-49
2023/03/06 09:47:27;;;;;;;;;34.75;30.25;;;;;-147.17;100.00;-15917.19;5114093;27;50923;-51
2023/03/06 09:50:08;;;;;;;;;30.00;25.50;;;;;-147.17;100.00;-15917.19;5030308;28;51116;-50
2023/03/06 09:52:46;;;;;;;;;30.50;27.50;;;;;-147.17;100.00;-15917.19;5114313;27;51213;-50
2023/03/06 09:55:19;;;;;;;;;29.50;26.00;;;;;-147.17;100.00;-15917.19;5113530;27;51923;-51
2023/03/06 09:57:53;;;;;;;;;25.00;24.00;;;;;-147.17;100.00;-15917.19;5114255;27;51283;-51
2023/03/06 10:00:35;;;;;;;;;28.00;26.75;;;;;-147.17;100.00;-15917.19;5113985;27;50913;-51
2023/03/06 10:03:18;;;;;;;;;25.50;23.25;;;;;-147.17;100.00;-15917.19;5113923;27;50922;-51
2023/03/06 10:05:52;;;;;;;;;26.75;25.00;;;;;-147.17;100.00;-15917.19;5113704;27;51109;-51
2023/03/06 10:08:34;;;;;;;;;32.00;23.50;;;;;-147.17;100.00;-15917.19;5095044;27;51081;-50
2023/03/06 10:11:02;;;;;;;;;29.50;27.25;;;;;-147.17;100.00;-15917.19;5113487;27;51320;-49
2023/03/06 10:13:41;;;;;;;;;25.00;25.00;;;;;-147.17;100.00;-15917.19;5114148;27;51245;-49
2023/03/06 10:16:29;;;;;;;;;36.25;32.50;;;;;-147.17;100.00;-15917.19;5113873;27;52276;-48
2023/03/06 10:19:01;;;;;;;;;28.25;26.00;;;;;-147.17;100.00;-15917.19;5113095;27;51093;-49
2023/03/06 10:22:04;;;;;;;;;30.00;29.00;;;;;-147.17;100.00;-15917.19;5113628;27;50920;-52
2023/03/06 10:24:55;;;;;;;;;31.00;28.00;;;;;-147.17;100.00;-15668.00;5107441;27;51246;-51
2023/03/06 10:27:23;;;;;;;;;27.50;23.00;;;;;-147.17;100.00;-14676.94;5112612;27;51730;-52
2023/03/06 10:30:02;;;;;;;;;24.50;21.00;;;;;-147.17;100.00;-13189.88;5093599;27;51433;-51
2023/03/06 10:32:46;;;;;;;;;25.00;22.75;;;;;-147.17;100.00;-11454.25;5113884;27;50947;-51
2023/03/06 10:35:18;;;;;;;;;20.00;19.00;;;;;-147.17;100.00;-10958.19;5113525;27;51079;-50
2023/03/06 10:37:43;;;;;;;;;23.50;20.25;;;;;-147.17;100.00;-9717.81;5113429;27;52036;-49
2023/03/06 10:40:19;;;;;;;;;27.00;23.50;;;;;-147.17;100.00;-6987.56;5113623;27;51083;-49
2023/03/06 10:42:44;;;;;;;;;21.00;19.50;;;;;-147.17;100.00;-5249.09;5113246;27;51148;-52
2023/03/06 10:45:13;;;;;;;;;19.75;19.25;;;;;-147.17;100.00;966.09;5113809;27;50936;-52
2023/03/06 10:47:39;;;;;;;;;18.75;17.75;;;;;-147.17;100.00;966.09;5094402;27;52199;-52